Time;durP1;ratioP1;P1;durP2;ratioP2;P2;SDS_P1;SDS_P2;PMS_P1;PMS_P2;Temp;Humidity;BMP_temperature;BMP_pressure;BME280_temperature;BME280_humidity;BME280_pressure;Samples;Min_cycle;Max_cycle;Signal;HPM_P1;HPM_P2
2023/01/20 00:00:23;;;;;;;14.32;8.30;;;2.70;66.10;;;;;;5028869;28;20505;-61
2023/01/20 00:02:49;;;;;;;21.40;9.13;;;2.70;66.10;;;;;;5029030;28;20479;-60
2023/01/20 00:05:15;;;;;;;14.48;8.85;;;2.80;66.20;;;;;;5032860;28;20057;-60
2023/01/20 00:07:56;;;;;;;16.65;8.85;;;2.70;66.20;;;;;;4993384;28;20501;-61
2023/01/20 00:10:21;;;;;;;14.70;9.15;;;2.70;66.20;;;;;;5034581;28;20033;-60
2023/01/20 00:12:47;;;;;;;15.45;9.23;;;2.70;66.20;;;;;;5029353;28;20032;-60
2023/01/20 00:15:12;;;;;;;15.70;8.98;;;2.70;66.20;;;;;;5036134;28;20032;-60
2023/01/20 00:17:38;;;;;;;14.10;8.40;;;2.70;66.30;;;;;;5011224;28;20077;-61
2023/01/20 00:20:04;;;;;;;15.20;8.63;;;2.70;66.30;;;;;;4965207;28;20037;-60
2023/01/20 00:22:30;;;;;;;15.27;8.68;;;2.70;66.30;;;;;;5036375;28;20489;-61
2023/01/20 00:24:56;;;;;;;14.43;8.65;;;2.70;66.30;;;;;;5029400;28;20038;-60
2023/01/20 00:27:21;;;;;;;18.05;9.50;;;2.70;66.30;;;;;;5017638;28;20033;-61
2023/01/20 00:29:47;;;;;;;20.98;9.52;;;2.80;66.40;;;;;;5033678;28;20040;-60
2023/01/20 00:32:12;;;;;;;22.02;9.52;;;2.70;66.30;;;;;;5030962;28;20050;-60
2023/01/20 00:34:38;;;;;;;17.35;9.75;;;2.70;66.30;;;;;;5031921;28;20056;-60
2023/01/20 00:37:04;;;;;;;17.80;8.82;;;2.70;66.40;;;;;;5032121;28;20025;-60
2023/01/20 00:39:29;;;;;;;16.88;9.32;;;2.70;66.40;;;;;;5031602;28;20347;-61
2023/01/20 00:41:55;;;;;;;13.43;8.40;;;2.70;66.40;;;;;;5033227;28;20092;-60
2023/01/20 00:44:21;;;;;;;12.98;7.38;;;3.00;66.60;;;;;;5034072;28;20049;-59
2023/01/20 00:46:46;;;;;;;15.80;8.20;;;2.90;66.40;;;;;;5036381;28;20028;-59
2023/01/20 00:49:12;;;;;;;15.43;7.40;;;2.80;66.30;;;;;;5031690;28;20032;-60
2023/01/20 00:51:38;;;;;;;14.38;7.60;;;2.60;66.20;;;;;;5034015;28;20018;-60
2023/01/20 00:54:04;;;;;;;14.75;7.78;;;2.70;66.30;;;;;;5032803;28;20033;-61
2023/01/20 00:56:29;;;;;;;14.85;7.93;;;2.70;66.40;;;;;;5029175;28;20037;-60
2023/01/20 00:58:55;;;;;;;10.68;7.00;;;2.90;66.40;;;;;;5033411;28;20041;-60
2023/01/20 01:01:22;;;;;;;12.65;7.25;;;2.70;66.10;;;;;;5033839;28;20025;-60
2023/01/20 01:03:47;;;;;;;12.75;7.82;;;2.70;66.20;;;;;;5027175;28;20473;-60
2023/01/20 01:06:16;;;;;;;11.98;7.53;;;2.70;66.20;;;;;;5029302;28;20100;-61
2023/01/20 01:08:43;;;;;;;14.07;7.68;;;2.70;66.30;;;;;;5015219;28;20096;-61
2023/01/20 01:11:10;;;;;;;14.40;7.47;;;2.70;66.30;;;;;;5033265;28;20037;-60
2023/01/20 01:13:37;;;;;;;18.77;8.65;;;2.70;66.30;;;;;;5013805;28;20026;-61
2023/01/20 01:16:13;;;;;;;14.35;7.55;;;2.70;66.30;;;;;;5027961;28;20033;-61
2023/01/20 01:18:40;;;;;;;15.68;7.90;;;2.70;66.30;;;;;;4927145;28;20593;-60
2023/01/20 01:21:07;;;;;;;14.15;7.90;;;2.70;66.30;;;;;;5030411;28;20022;-60
2023/01/20 01:23:33;;;;;;;17.67;8.82;;;2.70;66.30;;;;;;5026345;28;20025;-60
2023/01/20 01:25:59;;;;;;;15.82;8.98;;;2.70;66.30;;;;;;5033171;28;20025;-59
2023/01/20 01:28:24;;;;;;;16.75;9.05;;;2.70;66.30;;;;;;5031197;28;20040;-60
2023/01/20 01:30:50;;;;;;;19.33;8.32;;;2.70;66.30;;;;;;5024628;28;20101;-60
2023/01/20 01:33:15;;;;;;;14.07;7.95;;;2.70;66.30;;;;;;5024047;28;20121;-60
2023/01/20 01:35:41;;;;;;;13.50;7.28;;;2.80;66.30;;;;;;5032217;28;20113;-60
2023/01/20 01:38:07;;;;;;;12.43;6.93;;;2.80;66.30;;;;;;5015218;28;20108;-59
2023/01/20 01:40:33;;;;;;;12.40;7.10;;;2.80;66.40;;;;;;5028223;28;20493;-60
2023/01/20 01:42:58;;;;;;;12.20;7.03;;;2.90;66.50;;;;;;5033601;28;20424;-60
2023/01/20 01:45:28;;;;;;;10.73;6.85;;;2.70;66.30;;;;;;5031674;28;20029;-60
2023/01/20 01:48:09;;;;;;;11.50;6.75;;;2.70;66.30;;;;;;5030275;28;20507;-59
2023/01/20 01:50:48;;;;;;;14.23;6.57;;;2.70;66.30;;;;;;5030861;28;20033;-61
2023/01/20 01:53:14;;;;;;;14.25;6.70;;;2.70;66.20;;;;;;5026307;28;20098;-60
2023/01/20 01:55:50;;;;;;;9.73;6.50;;;2.80;66.20;;;;;;5027669;28;20049;-61
2023/01/20 01:58:21;;;;;;;11.10;6.88;;;2.60;66.20;;;;;;5031036;28;20056;-60
2023/01/20 02:00:47;;;;;;;11.68;7.63;;;2.70;66.20;;;;;;5031528;28;20034;-60
2023/01/20 02:03:13;;;;;;;12.98;6.93;;;2.90;66.30;;;;;;5031613;28;20057;-60
2023/01/20 02:05:40;;;;;;;12.48;7.15;;;2.60;66.10;;;;;;5036797;28;20037;-60
2023/01/20 02:08:07;;;;;;;12.07;7.18;;;2.60;66.00;;;;;;5012453;28;20097;-59
2023/01/20 02:10:32;;;;;;;10.20;6.43;;;2.60;66.00;;;;;;5028407;28;20080;-61
2023/01/20 02:12:59;;;;;;;8.73;6.07;;;2.60;65.90;;;;;;5036271;28;20021;-59
2023/01/20 02:15:53;;;;;;;11.40;6.25;;;2.50;65.90;;;;;;5034834;28;20041;-60
2023/01/20 02:18:42;;;;;;;11.02;6.03;;;2.50;65.90;;;;;;5029515;28;20047;-60
2023/01/20 02:21:08;;;;;;;9.85;5.97;;;2.40;66.00;;;;;;5035186;28;20048;-59
2023/01/20 02:23:49;;;;;;;11.15;6.90;;;2.40;65.90;;;;;;5020096;28;20152;-60
2023/01/20 02:26:55;;;;;;;9.80;6.10;;;2.40;66.10;;;;;;5034943;28;20025;-60
2023/01/20 02:29:39;;;;;;;10.63;6.30;;;2.40;66.20;;;;;;5040927;28;20501;-60
2023/01/20 02:32:30;;;;;;;8.40;5.95;;;2.30;66.10;;;;;;5030232;28;20014;-60
2023/01/20 02:35:21;;;;;;;10.98;6.28;;;2.30;66.20;;;;;;5035026;28;20367;-60
2023/01/20 02:38:08;;;;;;;9.07;6.40;;;2.20;66.20;;;;;;5031332;28;20033;-59
2023/01/20 02:40:58;;;;;;;11.30;6.38;;;2.20;66.20;;;;;;5031772;28;20045;-60
2023/01/20 02:43:47;;;;;;;9.93;6.45;;;2.20;66.40;;;;;;5033540;28;21058;-60
2023/01/20 02:46:19;;;;;;;12.95;6.70;;;2.20;66.40;;;;;;5031238;28;20030;-59
2023/01/20 02:48:57;;;;;;;17.83;6.25;;;2.40;66.40;;;;;;5034569;28;20034;-60
2023/01/20 02:51:28;;;;;;;10.30;6.43;;;2.20;67.00;;;;;;5036264;28;20073;-59
2023/01/20 02:54:03;;;;;;;12.82;7.10;;;2.10;66.30;;;;;;5030985;28;20025;-60
2023/01/20 02:56:28;;;;;;;;;;;2.30;66.40;;;;;;5028639;28;20497;-60
2023/01/20 02:59:00;;;;;;;12.65;7.32;;;2.20;66.50;;;;;;5015825;28;19917;-60
2023/01/20 03:01:51;;;;;;;10.30;6.55;;;2.20;66.20;;;;;;5031221;28;20028;-60
2023/01/20 03:04:25;;;;;;;11.68;6.35;;;2.00;66.20;;;;;;5034428;28;20021;-60
2023/01/20 03:06:54;;;;;;;11.77;6.60;;;2.00;66.40;;;;;;5029234;28;20038;-60
2023/01/20 03:09:26;;;;;;;12.15;7.45;;;2.00;66.40;;;;;;5033102;28;20100;-61
2023/01/20 03:11:59;;;;;;;11.07;6.88;;;2.00;66.60;;;;;;5032134;28;20018;-60
2023/01/20 03:14:25;;;;;;;9.52;6.55;;;2.00;66.80;;;;;;5025156;28;20504;-60
2023/01/20 03:16:51;;;;;;;14.40;7.22;;;2.00;66.90;;;;;;5020516;28;20034;-60
2023/01/20 03:19:18;;;;;;;11.57;6.85;;;2.20;67.20;;;;;;5012810;28;20045;-60
2023/01/20 03:21:44;;;;;;;11.25;7.20;;;2.10;67.20;;;;;;5041176;28;20029;-60
2023/01/20 03:24:10;;;;;;;14.43;7.38;;;2.10;67.20;;;;;;5028541;28;20026;-61
2023/01/20 03:26:37;;;;;;;14.27;6.78;;;2.10;67.10;;;;;;5033758;28;20060;-60
2023/01/20 03:29:07;;;;;;;16.20;7.80;;;2.10;67.10;;;;;;5027505;28;20088;-60
2023/01/20 03:31:41;;;;;;;10.40;6.53;;;2.10;67.10;;;;;;5013402;28;20037;-60
2023/01/20 03:34:12;;;;;;;10.38;7.40;;;2.10;67.10;;;;;;5035556;28;20032;-60
2023/01/20 03:36:40;;;;;;;11.75;6.82;;;2.20;67.20;;;;;;5037064;28;20089;-60
2023/01/20 03:39:05;;;;;;;11.30;7.00;;;2.20;67.30;;;;;;5031553;28;20038;-59
2023/01/20 03:41:55;;;;;;;12.00;7.25;;;2.40;67.50;;;;;;5034463;28;20431;-60
2023/01/20 03:44:56;;;;;;;10.35;6.55;;;2.20;67.60;;;;;;5031096;28;20065;-60
2023/01/20 03:47:40;;;;;;;10.57;6.43;;;2.20;67.60;;;;;;5029649;28;20022;-60
2023/01/20 03:50:27;;;;;;;11.98;7.03;;;2.30;67.70;;;;;;5036057;28;20080;-59
2023/01/20 03:53:22;;;;;;;11.38;7.18;;;2.30;67.40;;;;;;5033193;28;20029;-60
2023/01/20 03:56:02;;;;;;;12.65;7.07;;;2.30;67.70;;;;;;5032390;28;20034;-60
2023/01/20 03:58:40;;;;;;;11.63;6.78;;;2.30;67.50;;;;;;5032598;28;20040;-60
2023/01/20 04:01:08;;;;;;;11.40;6.38;;;2.40;67.70;;;;;;5013179;28;20044;-60
2023/01/20 04:03:38;;;;;;;11.90;7.72;;;2.30;67.40;;;;;;5013981;28;20477;-61
2023/01/20 04:06:07;;;;;;;10.93;7.10;;;2.30;67.50;;;;;;5035894;28;20025;-60
2023/01/20 04:08:41;;;;;;;12.13;8.18;;;2.30;67.60;;;;;;5033425;28;20108;-61
2023/01/20 04:11:07;;;;;;;;;;;2.30;67.80;;;;;;5029825;28;20030;-60
2023/01/20 04:13:33;;;;;;;15.63;7.72;;;2.40;68.10;;;;;;5030363;28;19932;-60
2023/01/20 04:16:00;;;;;;;20.08;7.82;;;2.40;67.40;;;;;;5033276;28;20045;-61
2023/01/20 04:18:26;;;;;;;23.55;7.97;;;2.40;67.50;;;;;;5032408;28;20096;-60
2023/01/20 04:21:28;;;;;;;13.88;7.55;;;2.40;67.60;;;;;;5033212;28;20060;-60
2023/01/20 04:24:04;;;;;;;9.25;6.95;;;2.40;68.00;;;;;;5036801;28;20030;-60
2023/01/20 04:26:30;;;;;;;16.38;8.13;;;2.50;67.90;;;;;;5034688;28;20057;-60
2023/01/20 04:28:55;;;;;;;12.88;7.57;;;2.50;67.90;;;;;;5030787;28;20030;-61
2023/01/20 04:31:21;;;;;;;11.30;7.80;;;2.50;67.90;;;;;;5030323;28;20060;-60
2023/01/20 04:33:46;;;;;;;13.65;7.63;;;2.50;67.90;;;;;;5028085;28;20055;-60
2023/01/20 04:36:12;;;;;;;12.20;7.15;;;2.70;68.10;;;;;;5040714;28;20115;-60
2023/01/20 04:38:38;;;;;;;12.63;8.02;;;2.50;68.00;;;;;;5031279;28;20060;-61
2023/01/20 04:41:04;;;;;;;12.70;7.97;;;2.50;68.00;;;;;;5017954;28;20484;-60
2023/01/20 04:43:29;;;;;;;11.32;7.50;;;2.60;68.70;;;;;;5027079;28;20109;-60
2023/01/20 04:45:55;;;;;;;11.70;7.53;;;2.60;68.00;;;;;;5036166;28;20037;-60
2023/01/20 04:48:20;;;;;;;13.18;7.40;;;2.60;68.10;;;;;;5038354;28;20036;-60
2023/01/20 04:50:46;;;;;;;12.80;8.00;;;2.60;68.10;;;;;;5020556;28;20558;-61
2023/01/20 04:53:15;;;;;;;15.45;7.85;;;2.90;68.30;;;;;;5033113;28;20048;-60
2023/01/20 04:55:41;;;;;;;16.77;8.50;;;2.60;68.10;;;;;;5031185;28;20021;-60
2023/01/20 04:58:09;;;;;;;17.02;8.95;;;2.70;68.10;;;;;;5029610;28;20086;-60
2023/01/20 05:00:35;;;;;;;13.27;8.80;;;2.80;68.20;;;;;;5031434;28;20040;-60
2023/01/20 05:03:01;;;;;;;11.82;8.20;;;2.70;68.20;;;;;;5036558;28;20030;-59
2023/01/20 05:05:27;;;;;;;13.40;7.88;;;2.70;68.10;;;;;;5039026;28;20025;-60
2023/01/20 05:07:53;;;;;;;15.13;8.52;;;2.70;68.10;;;;;;5028596;28;20030;-60
2023/01/20 05:10:20;;;;;;;10.25;7.18;;;2.80;68.20;;;;;;5034835;28;20541;-60
2023/01/20 05:12:46;;;;;;;16.20;7.63;;;2.80;68.20;;;;;;5031120;28;20045;-61
2023/01/20 05:15:11;;;;;;;11.88;8.13;;;3.10;68.40;;;;;;5015356;28;20055;-60
2023/01/20 05:17:37;;;;;;;12.15;7.90;;;2.80;68.10;;;;;;5029099;28;20036;-60
2023/01/20 05:20:03;;;;;;;9.55;6.75;;;2.90;68.00;;;;;;5037102;28;20602;-60
2023/01/20 05:22:31;;;;;;;10.27;7.43;;;2.90;67.90;;;;;;5033047;28;20026;-60
2023/01/20 05:24:58;;;;;;;12.50;7.68;;;2.90;67.90;;;;;;5031923;28;20025;-62
2023/01/20 05:27:24;;;;;;;12.57;7.53;;;2.90;68.00;;;;;;5035326;28;20040;-62
2023/01/20 05:29:49;;;;;;;10.65;6.90;;;2.90;68.10;;;;;;5036154;28;20570;-61
2023/01/20 05:32:15;;;;;;;14.32;8.25;;;3.00;68.20;;;;;;5027691;28;20021;-60
2023/01/20 05:34:40;;;;;;;16.83;8.93;;;2.90;68.10;;;;;;5036057;28;20163;-60
2023/01/20 05:37:06;;;;;;;13.77;8.85;;;3.00;68.10;;;;;;5035068;28;20029;-61
2023/01/20 05:39:32;;;;;;;19.50;10.52;;;3.00;68.10;;;;;;5032700;28;20041;-60
2023/01/20 05:41:59;;;;;;;15.60;10.68;;;3.00;68.00;;;;;;5027310;28;20029;-61
2023/01/20 05:44:25;;;;;;;14.63;9.05;;;3.00;67.90;;;;;;5033971;28;20156;-60
2023/01/20 05:46:50;;;;;;;41.22;18.75;;;3.00;67.80;;;;;;5037020;28;20038;-60
2023/01/20 05:49:16;;;;;;;31.45;16.83;;;3.00;67.90;;;;;;5028379;28;20030;-60
2023/01/20 05:51:41;;;;;;;27.88;14.63;;;3.00;67.90;;;;;;5033067;28;20033;-60
2023/01/20 05:54:07;;;;;;;24.52;13.85;;;3.00;68.00;;;;;;5035683;28;20052;-60
2023/01/20 05:56:33;;;;;;;19.98;11.70;;;3.00;68.00;;;;;;5029424;28;20065;-60
2023/01/20 05:58:58;;;;;;;19.20;11.30;;;3.20;68.20;;;;;;5032375;28;20622;-60
2023/01/20 06:01:24;;;;;;;22.08;11.68;;;3.10;68.20;;;;;;5028693;28;20044;-59
2023/01/20 06:03:50;;;;;;;17.95;10.68;;;3.10;68.10;;;;;;5007732;28;20097;-60
2023/01/20 06:06:17;;;;;;;15.82;9.38;;;3.10;68.10;;;;;;5028712;28;20025;-60
2023/01/20 06:08:43;;;;;;;25.27;13.77;;;3.10;68.10;;;;;;5027109;28;20049;-60
2023/01/20 06:11:10;;;;;;;37.33;18.45;;;3.10;68.00;;;;;;5018028;28;20056;-60
2023/01/20 06:13:38;;;;;;;31.98;15.27;;;3.10;67.90;;;;;;5024474;28;20546;-60
2023/01/20 06:16:04;;;;;;;27.90;13.30;;;3.40;68.10;;;;;;5025088;28;20396;-60
2023/01/20 06:18:30;;;;;;;23.48;12.73;;;3.10;67.90;;;;;;5035579;28;20033;-60
2023/01/20 06:20:57;;;;;;;19.45;11.10;;;3.30;67.80;;;;;;5017600;28;20037;-60
2023/01/20 06:23:23;;;;;;;17.45;10.27;;;3.10;67.90;;;;;;5036072;28;20022;-60
2023/01/20 06:26:04;;;;;;;17.80;10.43;;;3.10;67.70;;;;;;5034181;28;20033;-60
2023/01/20 06:28:31;;;;;;;19.98;11.20;;;3.20;68.00;;;;;;5030175;28;20086;-60
2023/01/20 06:31:01;;;;;;;19.52;11.45;;;3.10;68.00;;;;;;5033862;28;20084;-60
2023/01/20 06:33:27;;;;;;;17.45;10.50;;;3.20;68.10;;;;;;5006930;28;20022;-60
2023/01/20 06:35:54;;;;;;;18.60;10.75;;;3.20;67.90;;;;;;5032359;28;20033;-61
2023/01/20 06:38:21;;;;;;;18.15;10.68;;;3.30;67.90;;;;;;5037761;28;20021;-60
2023/01/20 06:40:47;;;;;;;15.27;10.15;;;3.40;67.70;;;;;;5033689;28;20029;-60
2023/01/20 06:43:12;;;;;;;20.05;10.73;;;3.20;67.70;;;;;;5029304;28;20092;-60
2023/01/20 06:45:38;;;;;;;20.23;11.10;;;3.10;67.80;;;;;;5034617;28;20017;-61
2023/01/20 06:48:03;;;;;;;18.38;11.70;;;3.10;67.90;;;;;;5031127;28;20048;-60
2023/01/20 06:50:29;;;;;;;16.83;10.63;;;3.10;68.10;;;;;;5039099;28;20029;-61
2023/01/20 06:52:55;;;;;;;19.30;11.05;;;3.10;68.20;;;;;;5031658;28;20021;-62
2023/01/20 06:55:21;;;;;;;18.48;11.13;;;3.20;68.10;;;;;;5034406;28;20033;-60
2023/01/20 06:57:46;;;;;;;19.77;11.70;;;3.10;68.00;;;;;;5016734;28;20033;-61
2023/01/20 07:00:13;;;;;;;23.85;12.73;;;3.20;68.10;;;;;;5036137;28;20116;-61
2023/01/20 07:02:38;;;;;;;20.02;11.57;;;3.10;68.20;;;;;;5035152;28;20108;-61
2023/01/20 07:05:06;;;;;;;20.02;11.65;;;3.20;68.40;;;;;;5036590;28;20060;-60
2023/01/20 07:07:33;;;;;;;21.33;12.35;;;3.20;68.60;;;;;;5036666;28;20105;-60
2023/01/20 07:09:59;;;;;;;25.45;11.25;;;3.20;68.60;;;;;;5026271;28;20457;-60
2023/01/20 07:12:25;;;;;;;21.13;11.82;;;3.20;68.50;;;;;;5031798;28;20037;-61
2023/01/20 07:14:51;;;;;;;23.17;13.23;;;3.20;68.30;;;;;;5026150;28;20041;-61
2023/01/20 07:17:16;;;;;;;22.13;12.10;;;3.20;68.50;;;;;;5011110;28;20037;-61
2023/01/20 07:19:42;;;;;;;22.48;12.10;;;3.20;68.60;;;;;;5036386;28;20048;-60
2023/01/20 07:22:07;;;;;;;24.55;12.43;;;3.20;68.80;;;;;;5028857;28;20037;-60
2023/01/20 07:24:33;;;;;;;20.17;11.68;;;3.20;68.90;;;;;;5037988;28;20021;-60
2023/01/20 07:26:59;;;;;;;24.45;13.38;;;3.40;69.10;;;;;;5036266;28;20060;-60
2023/01/20 07:29:26;;;;;;;21.38;12.43;;;3.20;69.10;;;;;;5033333;28;20104;-60
2023/01/20 07:31:52;;;;;;;22.15;12.02;;;3.20;69.10;;;;;;5029322;28;20029;-61
2023/01/20 07:34:17;;;;;;;25.98;13.02;;;3.20;69.00;;;;;;5032255;28;20049;-60
2023/01/20 07:36:43;;;;;;;20.75;11.68;;;3.30;68.90;;;;;;5033621;28;20080;-60
2023/01/20 07:39:10;;;;;;;19.50;11.32;;;3.30;69.00;;;;;;5036131;28;20644;-61
2023/01/20 07:41:36;;;;;;;23.17;12.50;;;3.30;69.00;;;;;;5033929;28;20018;-60
2023/01/20 07:44:02;;;;;;;27.17;12.05;;;3.30;69.00;;;;;;5037654;28;20037;-61
2023/01/20 07:46:27;;;;;;;27.27;12.45;;;3.40;68.90;;;;;;5038431;28;20101;-60
2023/01/20 07:48:55;;;;;;;19.98;12.07;;;3.40;68.90;;;;;;5029338;28;20033;-60
2023/01/20 07:51:20;;;;;;;19.10;11.25;;;3.40;69.00;;;;;;5037008;28;20040;-61
2023/01/20 07:53:49;;;;;;;16.90;10.52;;;3.60;69.10;;;;;;5013185;28;20029;-60
2023/01/20 07:56:33;;;;;;;15.82;10.18;;;3.50;69.00;;;;;;5034094;28;20029;-61
2023/01/20 07:58:59;;;;;;;18.60;10.47;;;3.50;69.00;;;;;;5034569;28;20097;-61
2023/01/20 08:01:29;;;;;;;19.50;10.90;;;3.70;68.90;;;;;;5028323;28;20321;-60
2023/01/20 08:03:56;;;;;;;21.23;10.25;;;3.50;69.00;;;;;;5036457;28;20021;-60
2023/01/20 08:06:24;;;;;;;17.65;10.75;;;3.50;68.90;;;;;;5032120;28;20018;-60
2023/01/20 08:08:49;;;;;;;16.83;9.75;;;3.60;69.10;;;;;;5030255;28;20060;-60
2023/01/20 08:11:17;;;;;;;17.67;9.73;;;3.70;68.90;;;;;;5030643;28;20026;-60
2023/01/20 08:13:44;;;;;;;16.35;9.73;;;3.70;68.60;;;;;;5033456;28;20077;-60
2023/01/20 08:16:11;;;;;;;18.85;10.23;;;3.80;68.30;;;;;;5030004;28;20026;-60
2023/01/20 08:18:38;;;;;;;17.73;8.98;;;3.80;68.10;;;;;;5032495;28;20041;-60
2023/01/20 08:21:07;;;;;;;15.20;9.63;;;3.80;68.10;;;;;;5029443;28;20053;-61
2023/01/20 08:23:36;;;;;;;14.15;9.27;;;3.80;67.90;;;;;;5027804;28;20490;-60
2023/01/20 08:26:04;;;;;;;15.32;9.13;;;3.80;67.70;;;;;;5031039;28;20079;-60
2023/01/20 08:28:31;;;;;;;15.50;9.43;;;3.80;68.50;;;;;;5029516;28;20060;-60
2023/01/20 08:31:05;;;;;;;13.73;8.88;;;3.80;67.90;;;;;;5028695;28;20049;-60
2023/01/20 08:33:31;;;;;;;;;;;3.80;67.90;;;;;;5035005;28;20033;-61
2023/01/20 08:36:03;;;;;;;14.10;7.82;;;3.90;68.20;;;;;;5030743;28;19913;-60
2023/01/20 08:38:29;;;;;;;12.02;7.65;;;3.90;67.90;;;;;;5035066;28;22314;-60
2023/01/20 08:40:55;;;;;;;12.57;8.00;;;3.90;67.80;;;;;;5027200;28;20052;-60
2023/01/20 08:43:20;;;;;;;13.60;8.57;;;3.90;67.60;;;;;;5022635;28;20037;-60
2023/01/20 08:45:46;;;;;;;13.68;8.48;;;3.90;67.40;;;;;;5030914;28;20029;-60
2023/01/20 08:48:12;;;;;;;13.65;8.32;;;3.90;67.00;;;;;;5037554;28;20028;-60
2023/01/20 08:50:38;;;;;;;15.82;7.65;;;3.90;66.90;;;;;;5031208;28;20425;-60
2023/01/20 08:53:03;;;;;;;12.25;6.93;;;3.90;66.90;;;;;;5032110;28;20365;-60
2023/01/20 08:55:30;;;;;;;11.18;7.18;;;3.80;66.80;;;;;;5032200;28;20021;-60
2023/01/20 08:57:55;;;;;;;11.32;6.25;;;3.80;66.90;;;;;;5035928;28;20029;-60
2023/01/20 09:00:21;;;;;;;9.85;6.38;;;3.80;67.00;;;;;;5016939;28;20116;-61
2023/01/20 09:02:47;;;;;;;11.63;6.05;;;3.80;66.90;;;;;;5035217;28;20033;-60
2023/01/20 09:05:13;;;;;;;13.20;6.70;;;3.80;66.90;;;;;;5014480;28;20032;-60
2023/01/20 09:07:39;;;;;;;10.80;6.63;;;3.80;66.70;;;;;;5030937;28;20033;-60
2023/01/20 09:10:05;;;;;;;9.23;5.68;;;3.80;66.60;;;;;;5033206;28;20030;-60
2023/01/20 09:12:31;;;;;;;10.85;5.75;;;3.70;66.70;;;;;;5027318;28;20108;-60
2023/01/20 09:14:56;;;;;;;10.23;6.03;;;3.70;66.80;;;;;;5027326;28;20073;-60
2023/01/20 09:17:22;;;;;;;9.27;5.85;;;3.70;66.80;;;;;;5031635;28;20026;-60
2023/01/20 09:19:47;;;;;;;8.65;5.72;;;3.70;66.80;;;;;;5023708;28;20038;-60
2023/01/20 09:22:13;;;;;;;10.10;6.45;;;3.70;67.00;;;;;;5032076;28;20033;-60
2023/01/20 09:24:39;;;;;;;12.20;6.38;;;3.70;67.00;;;;;;5030304;28;20034;-61
2023/01/20 09:27:05;;;;;;;8.75;5.45;;;3.70;67.20;;;;;;5031100;28;20025;-60
2023/01/20 09:29:30;;;;;;;9.70;5.43;;;3.70;67.20;;;;;;5034095;28;20041;-60
2023/01/20 09:31:59;;;;;;;10.30;5.57;;;3.70;67.10;;;;;;5023008;28;20611;-62
2023/01/20 09:34:26;;;;;;;12.45;6.55;;;3.80;67.10;;;;;;5028269;28;20033;-60
2023/01/20 09:43:52;;;;;;;8.63;5.25;;;3.80;66.90;;;;;;5026864;28;20080;-60
2023/01/20 09:45:44;;;;;;;9.38;5.38;;;3.90;66.80;;;;;;5026154;28;20049;-60
2023/01/20 09:54:27;;;;;;;11.20;6.90;;;4.00;66.90;;;;;;5023288;28;20033;-60
2023/01/20 09:56:55;;;;;;;11.57;7.45;;;4.00;66.80;;;;;;5020957;28;20045;-60
2023/01/20 09:59:36;;;;;;;11.73;7.97;;;4.10;66.80;;;;;;5029868;28;20037;-60
2023/01/20 10:02:09;;;;;;;8.77;5.85;;;4.10;66.60;;;;;;5022238;28;20037;-60
2023/01/20 10:04:44;;;;;;;9.88;6.00;;;4.20;66.50;;;;;;5028931;28;20421;-60
2023/01/20 10:07:25;;;;;;;8.73;5.72;;;4.20;66.40;;;;;;5031308;28;20034;-62
2023/01/20 10:10:04;;;;;;;8.50;5.60;;;4.30;67.20;;;;;;5002025;28;20105;-61
2023/01/20 10:12:35;;;;;;;7.65;5.22;;;4.30;66.40;;;;;;5028570;28;20091;-60
2023/01/20 10:15:14;;;;;;;8.13;4.53;;;4.40;66.30;;;;;;5029801;28;20037;-61
2023/01/20 10:18:03;;;;;;;6.45;4.65;;;4.40;65.90;;;;;;5027685;28;20060;-60
2023/01/20 10:21:01;;;;;;;7.05;4.93;;;4.50;65.40;;;;;;5005844;28;20046;-60
2023/01/20 10:23:45;;;;;;;9.10;4.75;;;4.50;65.50;;;;;;5027672;28;20029;-60
2023/01/20 10:26:37;;;;;;;6.72;4.82;;;4.60;65.10;;;;;;5031493;28;20099;-60
2023/01/20 10:29:05;;;;;;;6.63;4.65;;;4.60;65.30;;;;;;5023801;28;20542;-60
2023/01/20 10:31:41;;;;;;;9.80;4.88;;;4.60;65.40;;;;;;5029142;28;20022;-60
2023/01/20 10:34:12;;;;;;;6.00;4.47;;;4.60;64.50;;;;;;5029080;28;20036;-60
2023/01/20 10:36:43;;;;;;;9.18;5.32;;;4.60;64.80;;;;;;5026037;28;20108;-60
2023/01/20 10:39:33;;;;;;;7.63;4.68;;;4.60;64.90;;;;;;5030298;28;20185;-60
2023/01/20 10:42:09;;;;;;;8.50;5.30;;;4.60;65.00;;;;;;5036093;28;20053;-60
2023/01/20 10:44:35;;;;;;;10.30;5.75;;;4.50;65.20;;;;;;4993978;28;1140536;-60
2023/01/20 10:47:24;;;;;;;10.90;5.90;;;4.60;66.20;;;;;;5025132;28;20082;-60
2023/01/20 10:50:02;;;;;;;9.82;5.55;;;4.70;65.50;;;;;;5034339;28;20037;-60
2023/01/20 10:52:27;;;;;;;9.15;5.28;;;4.70;65.40;;;;;;5025672;28;20034;-60
2023/01/20 10:55:18;;;;;;;6.55;4.40;;;4.80;65.50;;;;;;5036436;28;20021;-60
2023/01/20 10:57:49;;;;;;;7.65;4.75;;;4.80;65.00;;;;;;5010515;28;20029;-60
2023/01/20 11:00:22;;;;;;;8.95;4.75;;;4.90;64.80;;;;;;5038574;28;20040;-61
2023/01/20 11:02:48;;;;;;;7.50;4.63;;;4.90;64.60;;;;;;5031195;28;20080;-60
2023/01/20 11:05:29;;;;;;;9.27;4.60;;;4.90;64.30;;;;;;5032974;28;20022;-60
2023/01/20 11:07:57;;;;;;;20.02;10.30;;;4.90;63.90;;;;;;5008394;28;20454;-60
2023/01/20 11:10:26;;;;;;;8.82;5.78;;;4.90;64.50;;;;;;5029749;28;20087;-61
2023/01/20 11:12:58;;;;;;;6.60;4.68;;;4.90;64.40;;;;;;5030964;28;20068;-60
2023/01/20 11:15:49;;;;;;;8.18;4.68;;;5.00;64.10;;;;;;5008455;28;20553;-60
2023/01/20 11:18:15;;;;;;;5.57;3.45;;;5.00;63.00;;;;;;5021795;28;20126;-60
2023/01/20 11:21:02;;;;;;;7.10;3.35;;;5.00;63.40;;;;;;5035054;28;20338;-60
2023/01/20 11:23:51;;;;;;;6.45;3.78;;;5.00;63.20;;;;;;5028497;28;20083;-60
2023/01/20 11:26:26;;;;;;;5.75;3.72;;;5.00;62.70;;;;;;5032628;28;20037;-62
2023/01/20 11:29:00;;;;;;;5.47;3.83;;;5.00;62.90;;;;;;5039997;28;20033;-60
2023/01/20 11:31:52;;;;;;;7.47;4.15;;;5.00;63.30;;;;;;5033038;28;20044;-60
2023/01/20 11:34:34;;;;;;;6.55;3.83;;;5.10;63.70;;;;;;5035422;28;20085;-61
2023/01/20 11:37:09;;;;;;;6.28;3.75;;;5.00;62.10;;;;;;5038106;28;20080;-60
2023/01/20 11:39:48;;;;;;;5.60;4.00;;;5.00;62.50;;;;;;5035303;28;20037;-60
2023/01/20 11:42:19;;;;;;;4.88;3.33;;;5.10;63.00;;;;;;5015090;28;20071;-61
2023/01/20 11:44:53;;;;;;;6.72;4.13;;;5.10;62.80;;;;;;5027536;28;20054;-61
2023/01/20 11:47:24;;;;;;;10.10;5.07;;;5.10;62.60;;;;;;5032114;28;20038;-61
2023/01/20 11:50:08;;;;;;;8.80;4.65;;;5.10;62.70;;;;;;5029479;28;20121;-61
2023/01/20 11:52:33;;;;;;;4.57;3.08;;;5.10;62.00;;;;;;5035984;28;20029;-61
2023/01/20 11:55:13;;;;;;;7.22;4.00;;;5.20;62.40;;;;;;5027622;28;20474;-61
2023/01/20 11:57:54;;;;;;;7.20;4.70;;;5.10;62.40;;;;;;5037939;28;20029;-61
2023/01/20 12:00:40;;;;;;;6.72;4.30;;;5.10;62.10;;;;;;5031683;28;20045;-61
2023/01/20 12:03:44;;;;;;;8.65;4.60;;;5.10;62.30;;;;;;5027251;28;20018;-61
2023/01/20 12:06:29;;;;;;;7.60;4.75;;;5.20;62.00;;;;;;5027234;28;20082;-61
2023/01/20 12:09:00;;;;;;;6.95;4.45;;;5.20;62.40;;;;;;5024851;28;20061;-61
2023/01/20 12:11:41;;;;;;;6.18;4.32;;;5.20;62.70;;;;;;5029856;28;20038;-61
2023/01/20 12:14:28;;;;;;;6.63;4.10;;;5.20;62.20;;;;;;5032402;28;20022;-61
2023/01/20 12:17:18;;;;;;;9.35;4.38;;;5.30;62.40;;;;;;5035104;28;20048;-61
2023/01/20 12:20:15;;;;;;;8.02;4.88;;;5.30;61.80;;;;;;5008004;28;20041;-61
2023/01/20 12:23:12;;;;;;;8.13;4.60;;;5.30;60.80;;;;;;5027134;28;20017;-62
2023/01/20 12:25:49;;;;;;;7.22;4.00;;;5.30;61.30;;;;;;5035374;28;20085;-61
2023/01/20 12:28:21;;;;;;;8.52;4.50;;;5.30;61.20;;;;;;5010083;28;20025;-61
2023/01/20 12:31:00;;;;;;;7.07;3.75;;;5.20;60.50;;;;;;5032132;28;20056;-61
2023/01/20 12:33:46;;;;;;;7.90;3.30;;;5.20;61.30;;;;;;5030137;28;20025;-61
2023/01/20 12:36:33;;;;;;;7.40;4.15;;;5.20;61.50;;;;;;5031520;28;20014;-61
2023/01/20 12:39:21;;;;;;;8.23;4.35;;;5.20;61.40;;;;;;5027110;28;20048;-61
2023/01/20 12:42:03;;;;;;;8.20;4.80;;;5.20;61.10;;;;;;5026349;28;20029;-61
2023/01/20 12:45:00;;;;;;;7.82;4.35;;;5.20;61.50;;;;;;5029952;28;20042;-63
2023/01/20 12:47:47;;;;;;;7.32;4.20;;;5.20;61.50;;;;;;5028084;28;20065;-62
2023/01/20 12:50:40;;;;;;;6.60;4.35;;;5.20;61.10;;;;;;5030956;28;20037;-64
2023/01/20 12:53:14;;;;;;;10.40;4.50;;;5.10;61.00;;;;;;5031334;28;20067;-62
2023/01/20 12:55:54;;;;;;;6.80;4.68;;;5.10;61.30;;;;;;5038156;28;20040;-61
2023/01/20 12:58:38;;;;;;;5.72;4.15;;;5.10;61.20;;;;;;5038028;28;20025;-61
2023/01/20 13:01:37;;;;;;;8.10;4.20;;;5.10;61.60;;;;;;5026905;28;20837;-61
2023/01/20 13:04:24;;;;;;;13.50;4.25;;;5.10;61.60;;;;;;5023480;28;20030;-61
2023/01/20 13:07:21;;;;;;;6.40;3.70;;;5.10;61.30;;;;;;5032285;28;20032;-61
2023/01/20 13:09:49;;;;;;;6.25;3.97;;;5.00;61.30;;;;;;5027882;28;20045;-61
2023/01/20 13:12:33;;;;;;;6.72;4.00;;;5.00;61.60;;;;;;5027120;28;20053;-61
2023/01/20 13:15:26;;;;;;;7.10;4.00;;;5.00;60.90;;;;;;5025267;28;20669;-61
2023/01/20 13:18:26;;;;;;;5.43;3.83;;;5.00;60.30;;;;;;5029340;28;20089;-61
2023/01/20 13:20:54;;;;;;;8.57;3.92;;;4.90;60.40;;;;;;5032537;28;20095;-61
2023/01/20 13:23:29;;;;;;;7.85;4.25;;;4.90;61.20;;;;;;5036486;28;20029;-61